Time;durP1;ratioP1;P1;durP2;ratioP2;P2;SDS_P1;SDS_P2;PMS_P1;PMS_P2;Temp;Humidity;BMP_temperature;BMP_pressure;BME280_temperature;BME280_humidity;BME280_pressure;Samples;Min_cycle;Max_cycle;Signal;HPM_P1;HPM_P2
2023/01/07 00:00:16;;;;;;;2.57;1.63;;;8.70;99.90;;;7.68;100.00;97861.16;5049625;28;20484;-76
2023/01/07 00:02:42;;;;;;;3.90;2.00;;;8.70;99.90;;;7.66;100.00;97862.44;5048645;28;20429;-76
2023/01/07 00:05:10;;;;;;;3.10;1.80;;;8.60;99.90;;;7.70;100.00;97855.69;5049507;28;20430;-76
2023/01/07 00:07:36;;;;;;;2.63;1.92;;;8.70;99.90;;;7.70;100.00;97853.84;5049463;28;20397;-76
2023/01/07 00:10:02;;;;;;;2.43;1.83;;;8.70;99.90;;;7.70;100.00;97858.31;5049513;28;20843;-76
2023/01/07 00:12:28;;;;;;;4.13;2.00;;;8.70;99.90;;;7.70;100.00;97855.69;5048733;28;20421;-76
2023/01/07 00:14:53;;;;;;;3.00;1.90;;;8.70;99.90;;;7.70;100.00;97850.41;5049197;28;20506;-76
2023/01/07 00:17:19;;;;;;;2.40;1.90;;;8.70;99.90;;;7.68;100.00;97855.91;5049508;28;20804;-76
2023/01/07 00:19:45;;;;;;;2.60;2.00;;;8.70;99.90;;;7.68;100.00;97853.25;5049476;28;20397;-77
2023/01/07 00:22:12;;;;;;;2.38;2.00;;;8.70;99.90;;;7.68;100.00;97855.09;5048781;28;20906;-76
2023/01/07 00:24:38;;;;;;;2.38;1.98;;;8.70;99.90;;;7.70;100.00;97848.59;5049055;28;20405;-76
2023/01/07 00:27:05;;;;;;;6.30;2.00;;;8.70;99.90;;;7.69;100.00;97846.16;5049351;28;20500;-77
2023/01/07 00:29:31;;;;;;;3.33;1.70;;;8.70;99.90;;;7.69;100.00;97844.34;5031577;28;20409;-76
2023/01/07 00:31:57;;;;;;;3.60;1.90;;;8.70;99.90;;;7.66;100.00;97836.09;5048647;28;20944;-76
2023/01/07 00:34:24;;;;;;;5.10;1.92;;;8.70;99.90;;;7.65;100.00;97832.66;5048961;28;20427;-76
2023/01/07 00:36:50;;;;;;;3.72;1.80;;;8.60;99.90;;;7.66;100.00;97829.00;5048031;28;21090;-76
2023/01/07 00:39:19;;;;;;;4.72;1.83;;;8.70;99.90;;;7.65;100.00;97826.56;5047939;28;20504;-77
2023/01/07 00:44:32;;;;;;;3.60;2.00;;;8.60;99.90;;;7.60;100.00;97819.31;5048928;28;20392;-76
2023/01/07 00:46:58;;;;;;;2.95;1.80;;;8.60;99.90;;;7.64;100.00;97820.50;5048894;28;20390;-76
2023/01/07 00:49:24;;;;;;;2.70;2.10;;;8.70;99.90;;;7.63;100.00;97818.06;5049167;28;20879;-77
2023/01/07 00:51:50;;;;;;;3.00;1.80;;;8.60;99.90;;;7.63;100.00;97810.97;5030718;28;20506;-77
2023/01/07 00:54:18;;;;;;;2.50;1.92;;;8.60;99.90;;;7.66;100.00;97817.66;5048519;28;20475;-76
2023/01/07 00:56:44;;;;;;;1.83;1.65;;;8.70;99.90;;;7.66;100.00;97815.00;5048935;28;20405;-76
2023/01/07 00:59:09;;;;;;;4.10;2.00;;;8.70;99.90;;;7.64;100.00;97814.41;5034491;28;20413;-76
2023/01/07 01:01:35;;;;;;;1.75;1.60;;;8.60;99.90;;;7.62;100.00;97817.25;5052289;28;20402;-77
2023/01/07 01:04:01;;;;;;;2.00;1.77;;;8.60;99.90;;;7.63;100.00;97810.97;5052130;28;20471;-76
2023/01/07 01:06:27;;;;;;;2.47;1.98;;;8.60;99.90;;;7.61;100.00;97814.84;5052577;28;20397;-76
2023/01/07 01:08:53;;;;;;;3.08;1.90;;;8.60;99.90;;;7.64;100.00;97811.78;5052570;28;20397;-76
2023/01/07 01:11:20;;;;;;;3.47;2.03;;;8.60;99.90;;;7.64;100.00;97812.59;5051872;28;20406;-76
2023/01/07 01:13:46;;;;;;;2.00;1.80;;;8.70;99.90;;;7.63;100.00;97810.16;5051920;28;20439;-76
2023/01/07 01:16:15;;;;;;;2.80;2.20;;;8.60;99.90;;;7.61;100.00;97807.75;5052450;28;20397;-76
2023/01/07 01:18:42;;;;;;;4.00;1.90;;;8.60;99.90;;;7.57;100.00;97811.88;5052236;28;20463;-76
2023/01/07 01:21:11;;;;;;;2.95;2.15;;;8.60;99.90;;;7.58;100.00;97807.41;5052305;28;20421;-76
2023/01/07 01:23:38;;;;;;;3.10;2.08;;;8.60;99.90;;;7.58;100.00;97804.78;5033701;28;20409;-76
2023/01/07 01:26:07;;;;;;;2.72;2.03;;;8.60;99.90;;;7.55;100.00;97803.38;5052119;28;20397;-76
2023/01/07 01:28:35;;;;;;;2.25;2.05;;;8.60;99.90;;;7.56;100.00;97804.19;5052131;28;21147;-76
2023/01/07 01:31:01;;;;;;;3.03;2.08;;;8.50;99.90;;;7.56;100.00;97799.72;5052020;28;20401;-76
2023/01/07 01:33:27;;;;;;;2.97;2.30;;;8.60;99.90;;;7.56;100.00;97794.44;5049725;28;20421;-76
2023/01/07 01:35:53;;;;;;;5.13;2.15;;;8.60;99.90;;;7.64;100.00;97804.69;5052094;28;20801;-76
2023/01/07 01:38:19;;;;;;;2.72;2.30;;;8.60;99.90;;;7.57;100.00;97797.88;5051808;28;20394;-76
2023/01/07 01:40:45;;;;;;;4.97;2.00;;;8.60;99.90;;;7.60;100.00;97795.59;5051788;28;20397;-76
2023/01/07 01:43:30;;;;;;;2.53;2.10;;;8.60;99.90;;;7.57;100.00;97796.06;5051095;28;20405;-76
2023/01/07 01:46:01;;;;;;;3.83;2.00;;;8.60;99.90;;;7.60;100.00;97798.22;5051692;28;20899;-76
2023/01/07 01:48:28;;;;;;;3.00;1.90;;;8.60;99.90;;;7.61;100.00;97791.94;5051575;28;20409;-76
2023/01/07 01:50:54;;;;;;;3.25;2.00;;;8.60;99.90;;;7.58;100.00;97788.97;5051723;28;20402;-76
2023/01/07 01:53:25;;;;;;;2.65;1.98;;;8.60;99.90;;;7.60;100.00;97795.59;5050646;28;20413;-76
2023/01/07 01:55:55;;;;;;;7.72;2.85;;;8.60;99.90;;;7.56;100.00;97788.38;5051679;28;20397;-76
2023/01/07 01:58:28;;;;;;;2.22;2.03;;;8.60;99.90;;;7.54;100.00;97793.84;5051466;28;20413;-75
2023/01/07 02:00:54;;;;;;;3.70;2.22;;;8.60;99.90;;;7.50;100.00;97784.00;5051625;28;20406;-76
2023/01/07 02:03:25;;;;;;;2.17;1.90;;;8.50;99.90;;;7.56;100.00;97783.09;5050502;28;20409;-76
2023/01/07 02:05:52;;;;;;;3.20;2.08;;;8.50;99.90;;;7.52;100.00;97787.22;5051570;28;20429;-76
2023/01/07 02:08:21;;;;;;;2.70;2.10;;;8.50;99.90;;;7.45;100.00;97784.63;5049612;28;20816;-76
2023/01/07 02:10:47;;;;;;;2.40;2.15;;;8.50;99.90;;;7.48;100.00;97781.56;5050683;28;20405;-76
2023/01/07 02:13:35;;;;;;;3.17;2.08;;;8.50;99.90;;;7.54;100.00;97778.06;5050502;28;20417;-76
2023/01/07 02:16:10;;;;;;;3.88;1.98;;;8.50;99.90;;;7.56;100.00;97769.94;5033388;28;20413;-77
2023/01/07 02:18:55;;;;;;;3.03;2.00;;;8.60;99.90;;;7.58;100.00;97766.06;5051095;28;20455;-77
2023/01/07 02:21:41;;;;;;;2.58;2.00;;;8.60;99.90;;;7.61;100.00;97770.06;5050659;28;20451;-76
2023/01/07 02:24:58;;;;;;;2.20;2.00;;;8.60;99.90;;;7.62;100.00;97769.84;5050741;28;20397;-76
2023/01/07 02:27:46;;;;;;;2.33;1.75;;;8.60;99.90;;;7.63;100.00;97765.38;5050845;28;20901;-76
2023/01/07 02:30:43;;;;;;;3.10;2.10;;;8.60;99.90;;;7.62;100.00;97761.13;5051312;28;20393;-76
2023/01/07 02:33:44;;;;;;;2.50;1.98;;;8.60;99.90;;;7.61;100.00;97757.69;5049939;28;20417;-76
2023/01/07 02:36:38;;;;;;;4.50;1.90;;;8.60;99.90;;;7.53;100.00;97754.56;5050808;28;20407;-76
2023/01/07 02:39:20;;;;;;;1.60;1.45;;;8.50;99.90;;;7.53;100.00;97741.38;5047994;28;20492;-76
2023/01/07 02:41:56;;;;;;;1.92;1.67;;;8.50;99.90;;;7.52;100.00;97745.84;5050249;28;20535;-76
2023/01/07 02:44:33;;;;;;;1.50;1.40;;;8.50;99.90;;;7.55;100.00;97742.78;5050381;28;20560;-76
2023/01/07 02:47:06;;;;;;;5.03;1.60;;;8.60;99.90;;;7.54;100.00;97735.91;5050496;28;20595;-76
2023/01/07 02:49:34;;;;;;;1.65;1.50;;;8.50;99.90;;;7.50;100.00;97729.50;5050567;28;20985;-76
2023/01/07 02:52:17;;;;;;;2.75;1.92;;;8.50;99.90;;;7.50;100.00;97729.50;5049842;28;20927;-76
2023/01/07 02:54:45;;;;;;;2.27;1.73;;;8.50;99.90;;;7.50;100.00;97726.03;5050179;28;20418;-76
2023/01/07 02:57:39;;;;;;;5.72;2.00;;;8.50;99.90;;;7.52;100.00;97724.78;5050483;28;20401;-77
2023/01/07 03:00:30;;;;;;;1.80;1.70;;;8.50;99.90;;;7.53;100.00;97722.94;5050511;28;20408;-76
2023/01/07 03:03:13;;;;;;;3.72;1.88;;;8.50;99.90;;;7.50;100.00;97718.94;5049547;28;20389;-76
2023/01/07 03:05:53;;;;;;;3.38;2.00;;;8.50;99.90;;;7.48;100.00;97721.00;5050349;28;20413;-76
2023/01/07 03:08:48;;;;;;;3.60;1.65;;;8.50;99.90;;;7.50;100.00;97716.31;5050152;28;20398;-76
2023/01/07 03:11:14;;;;;;;2.60;1.80;;;8.50;99.90;;;7.47;100.00;97714.13;5049779;28;20401;-75
2023/01/07 03:13:46;;;;;;;3.17;1.52;;;8.50;99.90;;;7.45;100.00;97703.00;5049774;28;20413;-77
2023/01/07 03:16:19;;;;;;;4.22;1.55;;;8.40;99.90;;;7.45;100.00;97707.44;5050232;28;20820;-76
2023/01/07 03:18:54;;;;;;;1.55;1.45;;;8.50;99.90;;;7.48;100.00;97701.75;5050126;28;20898;-74
2023/01/07 03:21:26;;;;;;;1.80;1.60;;;8.50;99.90;;;7.49;100.00;97698.91;5049200;28;20400;-75
2023/01/07 03:23:55;;;;;;;1.50;1.40;;;8.50;99.90;;;7.47;100.00;97698.31;5049779;28;20455;-75
2023/01/07 03:26:28;;;;;;;2.78;1.88;;;8.50;99.90;;;7.49;100.00;97692.81;5050032;28;20413;-75
2023/01/07 03:28:58;;;;;;;1.57;1.47;;;8.50;99.90;;;7.50;100.00;97697.88;5050064;28;20400;-76
2023/01/07 03:31:25;;;;;;;2.90;1.40;;;8.50;99.90;;;7.50;100.00;97689.97;5049465;28;20393;-76
2023/01/07 03:33:56;;;;;;;1.90;1.55;;;8.50;99.90;;;7.53;100.00;97680.81;5049563;28;20479;-75
2023/01/07 03:36:28;;;;;;;1.67;1.50;;;8.50;99.90;;;7.50;100.00;97684.72;5049575;28;20405;-76
2023/01/07 03:38:55;;;;;;;2.10;1.40;;;8.50;99.90;;;7.50;100.00;97673.38;5049911;28;20405;-76
2023/01/07 03:44:19;;;;;;;2.00;1.70;;;8.50;99.90;;;7.46;100.00;97683.53;5005218;28;20412;-76
2023/01/07 03:46:45;;;;;;;1.63;1.48;;;8.50;99.90;;;7.47;100.00;97679.88;5049845;28;20767;-77
2023/01/07 03:49:11;;;;;;;1.60;1.50;;;8.50;99.90;;;7.50;100.00;97673.38;5049831;28;20393;-76
2023/01/07 03:51:39;;;;;;;1.98;1.80;;;8.50;99.90;;;7.54;100.00;97671.88;5047924;28;20425;-76
2023/01/07 03:54:05;;;;;;;4.70;2.00;;;8.50;99.90;;;7.47;100.00;97669.34;5049498;28;20475;-76
2023/01/07 03:56:31;;;;;;;2.65;2.10;;;8.40;99.90;;;7.41;100.00;97672.88;5049721;28;20397;-77
2023/01/07 03:58:57;;;;;;;2.65;2.40;;;8.40;99.90;;;7.36;100.00;97660.38;5049539;28;21027;-76
2023/01/07 04:01:22;;;;;;;2.92;2.47;;;8.40;99.90;;;7.49;100.00;97662.03;5049228;28;20401;-76
2023/01/07 04:03:48;;;;;;;2.38;2.10;;;8.40;99.90;;;7.46;100.00;97659.81;5048126;28;20493;-76
2023/01/07 04:06:14;;;;;;;2.47;2.27;;;8.50;99.90;;;7.49;100.00;97661.22;5049578;28;20408;-76
2023/01/07 04:08:42;;;;;;;2.38;2.17;;;8.50;99.90;;;7.51;100.00;97652.06;5049558;28;20891;-76
2023/01/07 04:11:07;;;;;;;2.13;1.90;;;8.50;99.90;;;7.55;100.00;97644.50;5049516;28;20417;-76
2023/01/07 04:13:33;;;;;;;2.60;1.90;;;8.60;99.90;;;7.54;100.00;97650.81;5048547;28;20512;-75
2023/01/07 04:15:59;;;;;;;2.30;2.10;;;8.50;99.90;;;7.54;100.00;97648.16;5049485;28;20433;-76
2023/01/07 04:18:25;;;;;;;2.08;1.88;;;8.50;99.90;;;7.53;100.00;97650.00;5049433;28;20404;-76
2023/01/07 04:20:51;;;;;;;3.58;1.83;;;8.50;99.90;;;7.46;100.00;97645.84;5049427;28;20419;-76
2023/01/07 04:23:17;;;;;;;1.92;1.58;;;8.50;99.90;;;7.44;100.00;97643.47;5048527;28;20432;-76
2023/01/07 04:25:47;;;;;;;1.83;1.73;;;8.50;99.90;;;7.49;100.00;97642.78;5049308;28;20408;-76
2023/01/07 04:28:13;;;;;;;2.13;1.90;;;8.50;99.90;;;7.53;100.00;97643.94;5049404;28;20390;-76
2023/01/07 04:30:39;;;;;;;3.10;1.70;;;8.50;99.90;;;7.50;100.00;97642.56;5049334;28;20420;-76
2023/01/07 04:33:05;;;;;;;3.03;1.95;;;8.50;99.90;;;7.40;100.00;97637.03;5049094;28;20504;-76
2023/01/07 04:35:31;;;;;;;2.85;2.00;;;8.40;99.90;;;7.47;100.00;97634.28;5053189;28;20408;-76
2023/01/07 04:37:58;;;;;;;2.10;1.92;;;8.40;99.90;;;7.49;100.00;97625.16;5053086;28;20445;-75
2023/01/07 04:40:24;;;;;;;2.22;2.03;;;8.50;99.90;;;7.52;100.00;97626.53;5053048;28;20406;-76
2023/01/07 04:42:51;;;;;;;1.95;1.85;;;8.50;99.90;;;7.53;100.00;97615.75;5034189;28;20406;-76
2023/01/07 04:45:17;;;;;;;2.30;2.10;;;8.50;99.90;;;7.53;100.00;97614.94;5052801;28;20412;-76
2023/01/07 04:47:43;;;;;;;2.15;1.95;;;8.50;99.90;;;7.53;100.00;97610.50;5071512;22;20427;-76
2023/01/07 04:50:09;;;;;;;2.10;1.90;;;8.50;99.90;;;7.50;100.00;97618.84;5072807;28;20426;-75
2023/01/07 04:52:35;;;;;;;1.80;1.70;;;8.50;99.90;;;7.48;100.00;97622.72;5069394;28;20399;-76
2023/01/07 04:55:01;;;;;;;3.00;1.80;;;8.50;99.90;;;7.47;100.00;97613.22;5072480;28;20970;-76
2023/01/07 04:57:27;;;;;;;4.70;2.20;;;8.50;99.90;;;7.48;100.00;97613.00;5072646;28;20407;-76
2023/01/07 04:59:54;;;;;;;2.00;1.80;;;8.50;99.90;;;7.46;100.00;97608.97;5071485;28;20885;-76
2023/01/07 05:02:20;;;;;;;2.50;1.80;;;8.50;99.90;;;7.42;100.00;97606.00;5070868;28;20418;-76
2023/01/07 05:04:46;;;;;;;2.58;1.80;;;8.40;99.90;;;7.36;100.00;97602.47;5072240;28;20494;-76
2023/01/07 05:07:12;;;;;;;2.38;1.70;;;8.40;99.90;;;7.39;100.00;97599.34;5072639;28;20811;-76
2023/01/07 05:09:38;;;;;;;2.80;2.00;;;8.40;99.90;;;7.41;100.00;97593.88;5072496;28;20765;-76
2023/01/07 05:12:04;;;;;;;1.90;1.80;;;8.40;99.90;;;7.38;100.00;97595.09;5071868;28;20457;-76
2023/01/07 05:14:30;;;;;;;2.70;1.87;;;8.40;99.90;;;7.39;100.00;97590.66;5072195;28;20422;-76
2023/01/07 05:16:57;;;;;;;3.42;1.55;;;8.40;99.90;;;7.38;100.00;97596.94;5072584;28;20466;-76
2023/01/07 05:19:23;;;;;;;3.08;1.60;;;8.40;99.90;;;7.33;100.00;97591.56;5072396;28;20400;-76
2023/01/07 05:21:49;;;;;;;1.90;1.63;;;8.30;99.90;;;7.34;100.00;97593.16;5071849;28;20923;-76
2023/01/07 05:24:15;;;;;;;2.85;1.77;;;8.30;99.90;;;7.29;100.00;97587.78;5071884;28;20889;-76
2023/01/07 05:26:41;;;;;;;1.70;1.60;;;8.30;99.90;;;7.25;100.00;97589.25;5072287;28;20487;-76
2023/01/07 05:29:08;;;;;;;2.17;1.90;;;8.30;99.90;;;7.26;100.00;97580.31;5072189;28;20823;-75
2023/01/07 05:31:34;;;;;;;3.10;2.05;;;8.30;99.90;;;7.26;100.00;97578.50;5071586;28;20400;-75
2023/01/07 05:34:01;;;;;;;4.00;1.92;;;8.30;99.90;;;7.20;100.00;97576.75;5071387;28;20488;-75
2023/01/07 05:36:27;;;;;;;2.30;1.90;;;8.20;99.90;;;7.24;100.00;97575.28;5072015;28;20396;-75
2023/01/07 05:38:54;;;;;;;2.08;1.80;;;8.30;99.90;;;7.21;100.00;97570.47;5072042;28;20437;-76
2023/01/07 05:41:20;;;;;;;2.00;1.60;;;8.30;99.90;;;7.22;100.00;97572.06;5070124;28;20637;-75
2023/01/07 05:43:46;;;;;;;3.35;1.95;;;8.20;99.90;;;7.22;100.00;97566.78;5071460;28;20508;-75
2023/01/07 05:46:12;;;;;;;1.90;1.80;;;8.30;99.90;;;7.22;100.00;97569.41;5071898;28;20436;-75
2023/01/07 05:48:38;;;;;;;2.40;1.73;;;8.30;99.90;;;7.21;100.00;97567.84;5071576;28;20416;-75
2023/01/07 05:51:06;;;;;;;2.40;1.80;;;8.20;99.90;;;7.21;100.00;97564.41;5071892;28;20427;-75
2023/01/07 05:53:32;;;;;;;1.80;1.60;;;8.30;99.90;;;7.20;100.00;97566.22;5069775;28;20503;-75
2023/01/07 05:55:59;;;;;;;2.65;1.98;;;8.20;99.90;;;7.21;100.00;97559.13;5072270;28;20461;-75
2023/01/07 05:58:26;;;;;;;2.33;1.70;;;8.20;99.90;;;7.25;100.00;97561.09;5072329;28;20404;-75
2023/01/07 06:00:52;;;;;;;3.47;2.05;;;8.30;99.90;;;7.20;100.00;97549.63;5071658;28;20392;-75
2023/01/07 06:03:19;;;;;;;2.13;1.83;;;8.20;99.90;;;7.23;100.00;97549.97;5070662;28;20400;-75
2023/01/07 06:05:46;;;;;;;2.60;1.80;;;8.20;99.90;;;7.23;100.00;97547.34;5071590;28;20430;-76
2023/01/07 06:08:14;;;;;;;2.70;1.90;;;8.20;99.90;;;7.24;100.00;97546.31;5071462;28;20443;-76
2023/01/07 06:10:40;;;;;;;3.20;2.10;;;8.30;99.90;;;7.26;100.00;97546.91;5071417;28;20415;-75
2023/01/07 06:13:06;;;;;;;2.40;2.20;;;8.30;99.90;;;7.28;100.00;97547.47;5070568;28;20412;-76
2023/01/07 06:15:32;;;;;;;2.78;2.58;;;8.30;99.90;;;7.31;100.00;97543.56;5071382;28;20404;-76
2023/01/07 06:17:58;;;;;;;2.70;2.50;;;8.30;99.90;;;7.25;100.00;97542.66;5071250;28;20812;-76
2023/01/07 06:20:24;;;;;;;2.70;2.40;;;8.30;99.90;;;7.27;100.00;97535.34;5071169;28;20396;-76
2023/01/07 06:22:50;;;;;;;2.50;2.30;;;8.30;99.90;;;7.31;100.00;97543.56;5070343;28;20497;-76
2023/01/07 06:25:17;;;;;;;2.55;2.22;;;8.30;99.90;;;7.34;100.00;97543.94;5069792;28;20407;-75
2023/01/07 06:27:43;;;;;;;2.93;2.63;;;8.40;99.90;;;7.33;100.00;97536.25;5071028;28;20919;-75
2023/01/07 06:30:10;;;;;;;2.78;2.40;;;8.40;99.90;;;7.24;100.00;97541.03;5069707;28;20461;-75
2023/01/07 06:32:37;;;;;;;3.37;2.40;;;8.30;99.90;;;7.20;100.00;97539.09;5070176;28;20415;-75
2023/01/07 06:35:05;;;;;;;2.47;2.28;;;8.20;99.90;;;7.20;100.00;97541.72;5070785;28;20416;-75
2023/01/07 06:37:30;;;;;;;2.78;2.40;;;8.20;99.90;;;7.17;100.00;97536.91;5070789;28;20399;-76
2023/01/07 06:39:57;;;;;;;2.17;1.98;;;8.20;99.90;;;7.26;100.00;97535.56;5070871;28;20407;-75
2023/01/07 06:42:24;;;;;;;2.50;2.17;;;8.20;99.90;;;7.18;100.00;97531.41;5070082;28;20407;-75
2023/01/07 06:44:50;;;;;;;3.38;2.17;;;8.20;99.90;;;7.15;100.00;97529.22;5070474;28;20402;-75
2023/01/07 06:47:16;;;;;;;3.05;2.58;;;8.20;99.90;;;7.18;100.00;97531.41;5070455;28;20407;-75
2023/01/07 06:49:42;;;;;;;3.40;2.50;;;8.20;99.90;;;7.15;100.00;97528.41;5070020;28;20400;-75
2023/01/07 06:52:08;;;;;;;2.45;2.08;;;8.20;99.90;;;7.16;100.00;97522.94;5069102;28;20450;-75
2023/01/07 06:54:34;;;;;;;2.38;2.17;;;8.20;99.90;;;7.09;100.00;97514.34;5069105;28;20418;-75
2023/01/07 06:56:59;;;;;;;2.90;2.45;;;8.10;99.90;;;7.15;100.00;97515.25;5069236;28;20435;-75
2023/01/07 06:59:27;;;;;;;2.80;2.50;;;8.20;99.90;;;7.16;100.00;97515.03;5066427;28;20416;-75
2023/01/07 07:01:53;;;;;;;3.22;2.58;;;8.20;99.90;;;7.20;100.00;97512.78;5057466;28;20408;-74
2023/01/07 07:04:19;;;;;;;5.03;2.80;;;8.20;99.90;;;7.11;100.00;97517.56;5059138;28;20402;-74
2023/01/07 07:06:44;;;;;;;4.20;2.70;;;8.10;99.90;;;7.11;100.00;97512.28;5059609;28;20408;-74
2023/01/07 07:09:10;;;;;;;2.67;2.47;;;8.10;99.90;;;7.08;100.00;97518.00;5057924;28;20404;-74
2023/01/07 07:11:36;;;;;;;2.80;2.40;;;8.10;99.90;;;7.12;100.00;97511.28;5059227;28;20438;-74
2023/01/07 07:14:03;;;;;;;3.13;2.33;;;8.20;99.90;;;7.09;100.00;97510.91;5059327;28;20413;-75
2023/01/07 07:16:30;;;;;;;3.43;2.40;;;8.10;99.90;;;7.08;100.00;97507.47;5070359;28;20491;-74
2023/01/07 07:18:56;;;;;;;2.40;2.20;;;8.10;99.90;;;7.14;100.00;97511.06;5069353;28;20820;-74
2023/01/07 07:21:22;;;;;;;3.10;2.60;;;8.10;99.90;;;7.20;100.00;97508.31;5074095;28;20547;-74
2023/01/07 07:23:48;;;;;;;2.63;2.42;;;8.10;99.90;;;7.16;100.00;97501.88;5070185;28;20395;-74
2023/01/07 07:26:14;;;;;;;2.60;2.40;;;8.20;99.90;;;7.17;100.00;97502.69;5063489;28;20486;-74
2023/01/07 07:28:41;;;;;;;2.70;2.50;;;8.20;99.90;;;7.25;100.00;97512.88;5058998;28;20439;-74
2023/01/07 07:31:08;;;;;;;2.40;2.20;;;8.20;99.90;;;7.07;100.00;97505.09;5059493;28;20401;-76
2023/01/07 07:33:35;;;;;;;2.35;2.13;;;8.10;99.90;;;7.04;100.00;97508.97;5056865;28;20421;-73
2023/01/07 07:36:01;;;;;;;2.20;2.00;;;8.10;99.90;;;6.98;100.00;97494.88;5061612;28;20482;-74
2023/01/07 07:38:27;;;;;;;2.30;2.10;;;8.00;99.90;;;6.96;100.00;97489.03;5068330;28;20498;-73
2023/01/07 07:40:53;;;;;;;2.55;2.17;;;8.00;99.90;;;6.96;100.00;97498.75;5071891;28;20461;-74
2023/01/07 07:43:19;;;;;;;2.33;2.13;;;8.00;99.90;;;6.98;100.00;97491.44;5071934;28;20756;-74
2023/01/07 07:45:45;;;;;;;2.33;2.13;;;8.00;99.90;;;7.03;100.00;97488.94;5059843;28;20526;-73
2023/01/07 07:48:14;;;;;;;2.27;2.07;;;8.00;99.90;;;7.11;100.00;97485.97;5010367;28;1838327;-74
2023/01/07 07:50:41;;;;;;;2.17;1.98;;;8.10;99.90;;;7.14;100.00;97477.59;5075859;28;20394;-74
2023/01/07 07:53:09;;;;;;;3.10;2.20;;;8.20;99.90;;;7.19;100.00;97475.13;5057283;28;20425;-72
2023/01/07 07:55:36;;;;;;;2.30;2.10;;;8.20;99.90;;;7.22;100.00;97474.63;5072693;28;20782;-75
2023/01/07 07:58:02;;;;;;;2.50;2.30;;;8.20;99.90;;;7.23;100.00;97478.06;5060944;28;20448;-75
2023/01/07 08:00:28;;;;;;;2.60;2.20;;;8.30;99.90;;;7.23;100.00;97473.63;5070763;28;20416;-73
2023/01/07 08:02:56;;;;;;;2.40;2.20;;;8.30;99.90;;;7.26;100.00;97480.28;5070665;28;20416;-76
2023/01/07 08:05:22;;;;;;;2.20;2.00;;;8.30;99.90;;;7.28;100.00;97470.31;5069224;28;20507;-77
2023/01/07 08:07:50;;;;;;;2.30;2.08;;;8.30;99.90;;;7.29;100.00;97472.69;5062187;28;20478;-76
2023/01/07 08:10:16;;;;;;;2.30;2.10;;;8.30;99.90;;;7.32;100.00;97474.88;5064399;28;20761;-76
2023/01/07 08:12:42;;;;;;;4.38;2.17;;;8.30;99.90;;;7.35;100.00;97473.66;5061624;28;20404;-77
2023/01/07 08:15:09;;;;;;;2.63;2.13;;;8.40;99.90;;;7.37;100.00;97469.72;5065402;28;20823;-76
2023/01/07 08:17:35;;;;;;;2.58;2.10;;;8.40;99.90;;;7.37;100.00;97461.84;5067388;28;20751;-76
2023/01/07 08:20:01;;;;;;;2.77;2.10;;;8.40;99.90;;;7.38;100.00;97460.00;5061927;28;20409;-76
2023/01/07 08:22:27;;;;;;;3.00;1.90;;;8.40;99.90;;;7.38;100.00;97463.44;5062858;28;20713;-76
2023/01/07 08:24:54;;;;;;;2.20;2.00;;;8.40;99.90;;;7.39;100.00;97459.78;5063125;28;20453;-76
2023/01/07 08:27:20;;;;;;;1.90;1.80;;;8.40;99.90;;;7.41;100.00;97458.75;5061663;28;20405;-76
2023/01/07 08:29:46;;;;;;;2.45;2.10;;;8.40;99.90;;;7.43;100.00;97468.03;5062708;28;20426;-76
2023/01/07 08:32:12;;;;;;;2.35;2.15;;;8.40;99.90;;;7.47;100.00;97460.47;5067141;28;20963;-76
2023/01/07 08:34:38;;;;;;;2.45;2.15;;;8.50;99.90;;;7.49;100.00;97459.22;5067195;28;20438;-76
2023/01/07 08:37:04;;;;;;;2.38;2.17;;;8.50;99.90;;;7.51;100.00;97464.25;5066778;28;20510;-76
2023/01/07 08:39:29;;;;;;;2.30;2.10;;;8.50;99.90;;;7.53;100.00;97459.53;5064259;28;20460;-77
2023/01/07 08:41:57;;;;;;;2.77;2.10;;;8.50;99.90;;;7.54;100.00;97453.25;5064909;28;20468;-76
2023/01/07 08:44:23;;;;;;;3.50;2.13;;;8.60;99.90;;;7.56;100.00;97457.28;5066716;28;20408;-76
2023/01/07 08:46:48;;;;;;;2.28;2.08;;;8.60;99.90;;;7.56;100.00;97451.19;5061454;28;20729;-74
2023/01/07 08:49:14;;;;;;;2.57;2.27;;;8.60;99.90;;;7.60;100.00;97449.69;5064108;28;20768;-75
2023/01/07 08:51:40;;;;;;;5.25;2.40;;;8.60;99.90;;;7.59;100.00;97448.13;5055414;28;20420;-75
2023/01/07 08:54:06;;;;;;;5.22;3.40;;;8.60;99.90;;;7.80;100.00;97457.25;5070093;28;20750;-75
2023/01/07 08:56:32;;;;;;;4.35;3.38;;;8.70;99.90;;;7.58;100.00;97447.31;5068439;28;20393;-75
2023/01/07 08:58:59;;;;;;;3.57;2.90;;;8.60;99.90;;;7.59;100.00;97442.84;5059754;28;20396;-75
2023/01/07 09:01:25;;;;;;;3.33;3.00;;;8.50;99.90;;;7.65;100.00;97439.28;5064872;28;20465;-75
2023/01/07 09:03:51;;;;;;;3.27;2.93;;;8.60;99.90;;;7.58;100.00;97433.34;5072152;28;20407;-75
2023/01/07 09:06:17;;;;;;;3.75;2.85;;;8.60;99.90;;;7.59;100.00;97440.22;5041753;28;20445;-76
2023/01/07 09:08:43;;;;;;;3.22;2.83;;;8.60;99.90;;;7.59;100.00;97433.09;5067380;28;20400;-75
2023/01/07 09:11:09;;;;;;;4.03;3.00;;;8.60;99.90;;;7.59;100.00;97437.56;5061637;28;20408;-74
2023/01/07 09:13:35;;;;;;;3.27;2.60;;;8.60;99.90;;;7.52;100.00;97434.25;5059082;28;21110;-74
2023/01/07 09:16:02;;;;;;;2.90;2.45;;;8.50;99.90;;;7.56;100.00;97427.50;5048659;28;20411;-75
2023/01/07 09:18:28;;;;;;;2.93;2.63;;;8.50;99.90;;;7.70;100.00;97434.91;5052186;28;20908;-75
2023/01/07 09:20:54;;;;;;;2.90;2.42;;;8.70;99.90;;;7.68;100.00;97436.16;5068470;28;20475;-76
2023/01/07 09:23:20;;;;;;;4.40;2.90;;;8.70;99.90;;;7.85;100.00;97434.44;5057193;28;20419;-76
2023/01/07 09:25:46;;;;;;;3.15;2.70;;;8.80;99.90;;;7.93;100.00;97435.91;5066747;28;20515;-76
2023/01/07 09:28:12;;;;;;;3.17;2.83;;;8.90;99.90;;;7.98;100.00;97442.09;5063502;28;20490;-75
2023/01/07 09:30:37;;;;;;;3.08;2.47;;;8.90;99.90;;;7.92;100.00;97434.31;5071801;28;20399;-76
2023/01/07 09:33:05;;;;;;;3.97;3.10;;;8.90;99.90;;;7.91;100.00;97433.50;5061136;28;20428;-75
2023/01/07 09:35:31;;;;;;;3.43;3.13;;;8.90;99.90;;;7.96;100.00;97444.16;5059384;28;20474;-76
2023/01/07 09:37:56;;;;;;;3.65;2.80;;;8.90;99.90;;;8.00;100.00;97440.03;5065444;28;20406;-75
2023/01/07 09:40:26;;;;;;;3.25;2.70;;;9.00;99.90;;;8.08;100.00;97441.50;5063245;28;20950;-75
2023/01/07 09:43:01;;;;;;;3.40;2.92;;;9.00;99.90;;;8.11;100.00;97436.56;5056547;28;20400;-75
2023/01/07 09:45:31;;;;;;;3.70;3.20;;;9.10;99.90;;;8.00;100.00;97437.38;5061215;28;20907;-75
2023/01/07 09:48:01;;;;;;;4.15;3.17;;;9.00;99.90;;;8.07;100.00;97434.63;5064957;28;20433;-76
2023/01/07 09:50:42;;;;;;;4.28;3.45;;;9.00;99.90;;;8.18;100.00;97430.34;5060767;28;20773;-75
2023/01/07 09:53:15;;;;;;;5.25;4.00;;;9.10;99.90;;;8.17;100.00;97426.91;5068755;28;20396;-75
2023/01/07 09:55:42;;;;;;;4.80;3.50;;;9.10;99.90;;;8.31;100.00;97424.81;5064305;28;20901;-76
2023/01/07 09:58:14;;;;;;;5.53;4.45;;;9.20;99.90;;;8.41;100.00;97425.03;5050571;28;20415;-75
2023/01/07 10:01:03;;;;;;;6.90;4.80;;;9.30;99.90;;;8.55;100.00;97418.44;5065984;28;21173;-76
2023/01/07 10:03:50;;;;;;;4.80;4.10;;;9.50;99.90;;;8.53;100.00;97408.09;5055161;28;20755;-75
2023/01/07 10:06:24;;;;;;;7.65;5.13;;;9.50;99.90;;;8.59;100.00;97418.72;5068951;28;20403;-75
2023/01/07 10:09:03;;;;;;;8.10;5.10;;;9.50;99.90;;;8.75;100.00;97402.13;5062242;28;20395;-75
2023/01/07 10:11:51;;;;;;;8.40;5.10;;;9.60;99.90;;;9.47;100.00;97394.28;5069421;28;20431;-76
2023/01/07 10:14:51;;;;;;;5.50;3.67;;;10.30;99.90;;;10.47;100.00;97393.88;5068252;28;20418;-76
2023/01/07 10:17:33;;;;;;;6.68;4.15;;;11.30;99.90;;;10.85;100.00;97387.63;5068422;28;20439;-76
2023/01/07 10:20:09;;;;;;;5.30;3.85;;;11.70;99.90;;;11.14;100.00;97388.09;5050292;28;20425;-76
2023/01/07 10:22:44;;;;;;;5.47;3.97;;;12.10;99.90;;;11.74;100.00;97392.16;5050398;28;20430;-75
2023/01/07 10:25:18;;;;;;;6.07;4.43;;;12.70;99.90;;;11.88;100.00;97388.03;5051232;28;20784;-76
2023/01/07 10:27:46;;;;;;;7.87;3.73;;;12.70;99.90;;;12.42;100.00;97375.19;5051077;28;20405;-76
2023/01/07 10:30:18;;;;;;;6.20;3.60;;;13.20;99.90;;;13.00;100.00;97370.47;5050162;28;20445;-76
2023/01/07 10:32:47;;;;;;;5.15;3.83;;;13.90;99.90;;;12.93;100.00;97377.91;5050162;28;20386;-76
2023/01/07 10:35:17;;;;;;;4.90;3.60;;;13.90;94.60;;;12.74;100.00;97377.63;5050900;28;20486;-76
2023/01/07 10:37:45;;;;;;;4.90;3.80;;;13.60;97.50;;;12.37;100.00;97375.19;5050913;28;20485;-76